HAHCR LHBP-LHKE
Flight info
| Callsign | HAHCR |
|---|---|
| Flight time | 0h 18m |
| Altitude | 13000 |
| Route | DUNAMO DABAS ORKENY M5 HIGHWAY KECSKEMET |
| Aircraft | EC35/M-SBGRW/S |
Departure
| Time | 2026-04-26 15:47 |
|---|---|
| Airport | Budapest Liszt Ferenc International Airport (LHBP) |
Arrival
| Time | 2026-04-26 16:06 |
|---|---|
| Airport | Kecskemét Air Base (LHKE) |
| Time | Latitude | Longitude | Altitude | Speed | Heading |
|---|---|---|---|---|---|
| 2026-04-26 15:36 | 47.43807 | 19.22951 | 438 ft | 0 kts | 27° |
| 2026-04-26 15:45 | 47.43794 | 19.22970 | 438 ft | 0 kts | 79° |
| 2026-04-26 15:45 | 47.43830 | 19.22937 | 454 ft | 29 kts | 339° |
| 2026-04-26 15:46 | 47.44090 | 19.21428 | 744 ft | 108 kts | 261° |
| 2026-04-26 15:46 | 47.43733 | 19.20353 | 733 ft | 123 kts | 236° |
| 2026-04-26 15:46 | 47.43107 | 19.19399 | 759 ft | 130 kts | 225° |
| 2026-04-26 15:46 | 47.42661 | 19.18827 | 861 ft | 132 kts | 225° |
| 2026-04-26 15:47 | 47.41739 | 19.17685 | 957 ft | 131 kts | 227° |
| 2026-04-26 15:47 | 47.40475 | 19.15951 | 1407 ft | 123 kts | 233° |
| 2026-04-26 15:47 | 47.39880 | 19.15054 | 1418 ft | 136 kts | 231° |
| 2026-04-26 15:48 | 47.39134 | 19.14088 | 1350 ft | 141 kts | 224° |
| 2026-04-26 15:48 | 47.38386 | 19.13200 | 1357 ft | 141 kts | 222° |
| 2026-04-26 15:48 | 47.37568 | 19.12321 | 1275 ft | 146 kts | 212° |
| 2026-04-26 15:48 | 47.36763 | 19.11400 | 1287 ft | 146 kts | 220° |
| 2026-04-26 15:49 | 47.35808 | 19.11003 | 1422 ft | 148 kts | 185° |
| 2026-04-26 15:49 | 47.34744 | 19.11178 | 1288 ft | 157 kts | 166° |
| 2026-04-26 15:49 | 47.33706 | 19.11642 | 1304 ft | 153 kts | 161° |
| 2026-04-26 15:49 | 47.32716 | 19.12159 | 1427 ft | 147 kts | 157° |
| 2026-04-26 15:50 | 47.31796 | 19.12804 | 1430 ft | 147 kts | 143° |
| 2026-04-26 15:50 | 47.30913 | 19.13625 | 1387 ft | 153 kts | 141° |
| 2026-04-26 15:50 | 47.30080 | 19.14493 | 1523 ft | 143 kts | 134° |
| 2026-04-26 15:50 | 47.29260 | 19.15399 | 1471 ft | 153 kts | 134° |
| 2026-04-26 15:51 | 47.28440 | 19.16384 | 1575 ft | 143 kts | 134° |
| 2026-04-26 15:51 | 47.27664 | 19.17352 | 1520 ft | 149 kts | 132° |
| 2026-04-26 15:51 | 47.26884 | 19.18352 | 1484 ft | 152 kts | 124° |
| 2026-04-26 15:51 | 47.26151 | 19.19507 | 1330 ft | 154 kts | 122° |
| 2026-04-26 15:52 | 47.25416 | 19.20690 | 1274 ft | 155 kts | 128° |
| 2026-04-26 15:52 | 47.24594 | 19.21666 | 1338 ft | 148 kts | 139° |
| 2026-04-26 15:52 | 47.23775 | 19.22580 | 1369 ft | 149 kts | 134° |
| 2026-04-26 15:52 | 47.23229 | 19.23218 | 1356 ft | 148 kts | 131° |
| 2026-04-26 15:53 | 47.22147 | 19.24570 | 1159 ft | 157 kts | 129° |
| 2026-04-26 15:53 | 47.21424 | 19.25741 | 1010 ft | 157 kts | 123° |
| 2026-04-26 15:53 | 47.20708 | 19.26962 | 845 ft | 154 kts | 126° |
| 2026-04-26 15:53 | 47.19937 | 19.28025 | 783 ft | 150 kts | 133° |
| 2026-04-26 15:54 | 47.19107 | 19.28966 | 745 ft | 150 kts | 131° |
| 2026-04-26 15:54 | 47.18391 | 19.30015 | 868 ft | 138 kts | 127° |
| 2026-04-26 15:54 | 47.17734 | 19.30958 | 1162 ft | 130 kts | 129° |
| 2026-04-26 15:54 | 47.17062 | 19.31908 | 1290 ft | 139 kts | 128° |
| 2026-04-26 15:55 | 47.16375 | 19.32930 | 1298 ft | 145 kts | 125° |
| 2026-04-26 15:55 | 47.15730 | 19.34114 | 1182 ft | 150 kts | 117° |
| 2026-04-26 15:55 | 47.15232 | 19.35449 | 990 ft | 153 kts | 107° |
| 2026-04-26 15:55 | 47.14806 | 19.36920 | 630 ft | 157 kts | 101° |
| 2026-04-26 15:56 | 47.14494 | 19.38401 | 582 ft | 141 kts | 96° |
| 2026-04-26 15:56 | 47.14230 | 19.39668 | 777 ft | 135 kts | 99° |
| 2026-04-26 15:56 | 47.13720 | 19.40871 | 734 ft | 148 kts | 123° |
| 2026-04-26 15:56 | 47.13067 | 19.42005 | 928 ft | 131 kts | 120° |
| 2026-04-26 15:57 | 47.12710 | 19.43131 | 1170 ft | 119 kts | 75° |
| 2026-04-26 15:57 | 47.13089 | 19.44163 | 1204 ft | 118 kts | 37° |
| 2026-04-26 15:57 | 47.13660 | 19.45056 | 1201 ft | 119 kts | 30° |
| 2026-04-26 15:57 | 47.14031 | 19.45671 | 1217 ft | 125 kts | 50° |
| 2026-04-26 15:58 | 47.13752 | 19.47565 | 605 ft | 166 kts | 123° |
| 2026-04-26 15:58 | 47.12949 | 19.48664 | 560 ft | 147 kts | 127° |
| 2026-04-26 15:58 | 47.12148 | 19.49555 | 641 ft | 143 kts | 139° |
| 2026-04-26 15:58 | 47.11359 | 19.50364 | 829 ft | 136 kts | 141° |
| 2026-04-26 15:59 | 47.10501 | 19.51017 | 913 ft | 143 kts | 148° |
| 2026-04-26 15:59 | 47.09606 | 19.51720 | 928 ft | 145 kts | 144° |
| 2026-04-26 15:59 | 47.08706 | 19.52380 | 961 ft | 147 kts | 150° |
| 2026-04-26 15:59 | 47.07782 | 19.53052 | 1000 ft | 146 kts | 147° |
| 2026-04-26 16:00 | 47.06881 | 19.53740 | 949 ft | 151 kts | 143° |
| 2026-04-26 16:00 | 47.05982 | 19.54677 | 589 ft | 158 kts | 136° |
| 2026-04-26 16:00 | 47.05064 | 19.55476 | 572 ft | 148 kts | 138° |
| 2026-04-26 16:00 | 47.04351 | 19.56346 | 1030 ft | 115 kts | 140° |
| 2026-04-26 16:01 | 47.03727 | 19.56966 | 1464 ft | 117 kts | 140° |
| 2026-04-26 16:01 | 47.03040 | 19.57783 | 1468 ft | 141 kts | 129° |
| 2026-04-26 16:01 | 47.02311 | 19.58733 | 1626 ft | 139 kts | 130° |
| 2026-04-26 16:01 | 47.01513 | 19.59617 | 1574 ft | 153 kts | 138° |
| 2026-04-26 16:02 | 47.00626 | 19.60421 | 1639 ft | 148 kts | 143° |
| 2026-04-26 16:02 | 46.99683 | 19.61227 | 1417 ft | 156 kts | 140° |
| 2026-04-26 16:02 | 46.98792 | 19.62054 | 1508 ft | 149 kts | 141° |
| 2026-04-26 16:02 | 46.98209 | 19.62602 | 1563 ft | 148 kts | 140° |
| 2026-04-26 16:03 | 46.97089 | 19.63770 | 1563 ft | 151 kts | 131° |
| 2026-04-26 16:03 | 46.96326 | 19.64870 | 1405 ft | 156 kts | 123° |
| 2026-04-26 16:03 | 46.95673 | 19.66141 | 1177 ft | 157 kts | 115° |
| 2026-04-26 16:03 | 46.95138 | 19.67446 | 1149 ft | 138 kts | 111° |
| 2026-04-26 16:04 | 46.94645 | 19.68528 | 1265 ft | 125 kts | 111° |
| 2026-04-26 16:04 | 46.94142 | 19.69573 | 1191 ft | 128 kts | 110° |
| 2026-04-26 16:04 | 46.93669 | 19.70682 | 1070 ft | 130 kts | 110° |
| 2026-04-26 16:04 | 46.93200 | 19.71704 | 946 ft | 109 kts | 112° |
| 2026-04-26 16:05 | 46.92812 | 19.72519 | 860 ft | 89 kts | 102° |
| 2026-04-26 16:05 | 46.92468 | 19.73240 | 695 ft | 87 kts | 100° |
| 2026-04-26 16:05 | 46.92193 | 19.73992 | 554 ft | 80 kts | 123° |
| 2026-04-26 16:05 | 46.91886 | 19.74612 | 451 ft | 69 kts | 160° |
| 2026-04-26 16:06 | 46.91569 | 19.74902 | 434 ft | 38 kts | 218° |
| 2026-04-26 16:06 | 46.91356 | 19.74877 | 422 ft | 5 kts | 326° |
| 2026-04-26 16:06 | 46.91386 | 19.74866 | 379 ft | 1 kts | 329° |